Time;durP1;ratioP1;P1;durP2;ratioP2;P2;SDS_P1;SDS_P2;PMS_P1;PMS_P2;Temp;Humidity;BMP_temperature;BMP_pressure;BME280_temperature;BME280_humidity;BME280_pressure;Samples;Min_cycle;Max_cycle;Signal;HPM_P1;HPM_P2
2023/08/06 00:00:46;;;;;;;6.95;2.83;;;14.70;99.90;;;13.75;91.33;100571.03;4930671;28;22503;-77
2023/08/06 00:03:14;;;;;;;8.02;2.85;;;14.70;99.90;;;13.77;91.23;100580.69;4932029;28;20118;-76
2023/08/06 00:05:43;;;;;;;7.30;2.83;;;14.70;99.90;;;13.75;90.98;100576.31;4925669;28;20038;-76
2023/08/06 00:08:09;;;;;;;4.80;2.40;;;14.70;99.90;;;13.75;91.12;100564.91;4926784;28;20035;-76
2023/08/06 00:10:34;;;;;;;8.48;2.65;;;14.70;99.90;;;13.77;91.54;100565.66;4908838;28;20118;-76
2023/08/06 00:13:00;;;;;;;10.43;2.80;;;14.70;99.90;;;13.77;91.65;100572.75;4908362;28;20046;-76
2023/08/06 00:15:26;;;;;;;7.22;2.70;;;14.70;99.90;;;13.74;91.86;100566.72;4940405;28;20082;-76
2023/08/06 00:17:54;;;;;;;7.53;2.58;;;14.70;99.90;;;13.74;92.22;100566.72;4917827;28;20078;-76
2023/08/06 00:20:22;;;;;;;7.97;3.20;;;14.70;99.90;;;13.72;92.13;100568.59;4915720;28;20043;-76
2023/08/06 00:22:48;;;;;;;15.07;3.13;;;14.60;99.90;;;13.72;92.26;100565.94;4919190;28;20039;-76
2023/08/06 00:25:13;;;;;;;7.38;3.25;;;14.70;99.90;;;13.73;92.11;100561.50;4920723;28;20043;-76
2023/08/06 00:27:39;;;;;;;8.98;3.10;;;14.70;99.90;;;13.73;92.50;100558.84;4907190;28;20047;-76
2023/08/06 00:30:06;;;;;;;9.15;3.00;;;14.70;99.90;;;13.73;92.75;100561.50;4915488;28;20130;-76
2023/08/06 00:32:36;;;;;;;11.15;2.67;;;14.70;99.90;;;13.73;93.47;100556.22;4914300;28;20452;-76
2023/08/06 00:35:03;;;;;;;11.10;3.42;;;14.60;99.90;;;13.67;94.33;100543.34;4916689;28;20613;-76
2023/08/06 00:37:29;;;;;;;8.02;2.90;;;14.60;99.90;;;13.68;94.46;100548.56;4922604;28;20047;-76
2023/08/06 00:39:54;;;;;;;6.18;2.53;;;14.70;99.90;;;13.71;94.89;100545.75;4935193;28;20448;-76
2023/08/06 00:42:21;;;;;;;10.20;3.33;;;14.60;99.90;;;13.72;94.81;100547.44;4934494;28;20035;-76
2023/08/06 00:44:47;;;;;;;14.80;3.10;;;14.70;99.90;;;13.71;94.97;100543.09;4907339;28;20054;-76
2023/08/06 00:47:17;;;;;;;0.10;0.10;;;14.70;99.90;;;13.74;95.17;100542.03;4921453;28;20048;-76
2023/08/06 00:49:43;;;;;;;7.53;2.70;;;14.70;99.90;;;13.75;94.34;100544.56;4912950;28;20134;-76
2023/08/06 00:52:09;;;;;;;90.10;46.00;;;14.70;99.90;;;13.77;93.62;100543.66;4933106;28;20040;-77
2023/08/06 00:54:35;;;;;;;0.00;0.00;;;14.70;99.90;;;13.71;94.85;100540.44;4894393;28;20032;-76
2023/08/06 00:57:02;;;;;;;4.32;1.92;;;14.70;99.90;;;13.73;94.77;100540.34;4907545;28;20046;-76
2023/08/06 00:59:30;;;;;;;7.03;2.90;;;14.70;99.90;;;13.78;94.30;100538.25;4896014;28;20090;-76
2023/08/06 01:01:58;;;;;;;9.40;2.60;;;14.70;99.90;;;13.82;93.78;100541.53;4925467;28;20069;-76
2023/08/06 01:04:24;;;;;;;9.38;2.75;;;14.80;99.90;;;13.83;93.12;100540.63;4922403;28;20094;-76
2023/08/06 01:07:21;;;;;;;9.38;2.95;;;14.80;99.90;;;13.84;93.62;100544.94;4936736;28;20458;-76
2023/08/06 01:10:07;;;;;;;8.48;3.00;;;14.80;99.90;;;13.82;94.18;100537.13;4911156;28;20153;-76
2023/08/06 01:12:53;;;;;;;10.90;2.72;;;14.80;99.90;;;13.82;93.95;100528.31;4927034;28;20134;-76
2023/08/06 01:15:29;;;;;;;5.65;3.00;;;14.80;99.90;;;13.82;94.06;100534.47;4925889;28;20210;-77
2023/08/06 01:17:55;;;;;;;8.50;3.15;;;14.70;99.90;;;13.81;93.94;100529.28;4926460;28;20048;-76
2023/08/06 01:20:21;;;;;;;6.25;2.85;;;14.70;99.90;;;13.82;93.79;100525.66;4933527;28;20653;-76
2023/08/06 01:22:47;;;;;;;11.85;3.38;;;14.70;99.90;;;13.83;94.04;100524.75;4912055;28;20077;-76
2023/08/06 01:25:16;;;;;;;13.48;3.80;;;14.70;99.90;;;13.85;94.26;100522.84;4933834;28;20503;-76
2023/08/06 01:27:54;;;;;;;6.40;3.35;;;14.70;99.90;;;13.83;94.58;100514.16;4927542;28;20027;-77
2023/08/06 01:30:30;;;;;;;12.23;3.47;;;14.80;99.90;;;13.82;94.86;100523.91;4928389;28;20042;-76
2023/08/06 01:33:02;;;;;;;11.33;3.80;;;14.70;99.90;;;13.82;94.48;100515.97;4921769;28;20058;-76
2023/08/06 01:35:29;;;;;;;6.13;3.22;;;14.70;99.90;;;13.80;94.83;100522.28;4931292;28;20289;-76
2023/08/06 01:37:57;;;;;;;8.13;3.13;;;14.70;99.90;;;13.81;94.44;100513.41;4923290;28;20096;-76
2023/08/06 01:40:25;;;;;;;7.35;3.05;;;14.70;99.90;;;13.80;94.58;100511.69;4945336;28;20035;-76
2023/08/06 01:42:50;;;;;;;7.22;3.58;;;14.70;99.90;;;13.78;94.40;100508.28;4924345;28;20054;-76
2023/08/06 01:45:16;;;;;;;9.18;3.72;;;14.70;99.90;;;13.76;94.83;100511.06;4935469;28;20153;-76
2023/08/06 01:47:42;;;;;;;9.60;3.25;;;14.70;99.90;;;13.75;94.63;100510.19;4915097;28;20050;-76
2023/08/06 01:50:08;;;;;;;9.00;3.92;;;14.70;99.90;;;13.75;94.95;100504.88;4921911;28;20043;-76
2023/08/06 01:52:37;;;;;;;9.15;3.35;;;14.70;99.90;;;13.75;95.31;100512.81;4934063;28;20052;-76
2023/08/06 01:55:03;;;;;;;15.15;3.50;;;14.70;99.90;;;13.73;95.92;100514.72;4917420;28;20074;-76
2023/08/06 01:57:29;;;;;;;18.00;3.72;;;14.70;99.90;;;13.69;96.35;100513.22;4922743;28;20047;-76
2023/08/06 01:59:55;;;;;;;8.20;3.20;;;14.70;99.90;;;13.69;96.21;100515.00;4917369;28;20043;-76
2023/08/06 02:02:21;;;;;;;6.95;3.45;;;14.70;99.90;;;13.70;96.56;100512.28;4925988;28;20407;-76
2023/08/06 02:04:47;;;;;;;7.90;3.85;;;14.70;99.90;;;13.71;96.70;100508.69;4934586;28;20492;-75
2023/08/06 02:07:12;;;;;;;6.57;3.33;;;14.70;99.90;;;13.73;96.73;100511.22;4917493;28;20043;-76
2023/08/06 02:09:41;;;;;;;12.40;4.10;;;14.70;99.90;;;13.72;97.07;100505.09;4905228;28;20522;-77
2023/08/06 02:12:07;;;;;;;8.63;3.67;;;14.60;99.90;;;13.69;98.10;100496.50;4896864;28;20062;-77
2023/08/06 02:14:33;;;;;;;10.05;3.88;;;14.60;99.90;;;13.67;99.08;100501.91;4927505;28;20833;-76
2023/08/06 02:16:59;;;;;;;10.07;3.75;;;14.60;99.90;;;13.69;99.03;100499.13;4950885;28;20115;-76
2023/08/06 02:19:25;;;;;;;7.72;3.80;;;14.70;99.90;;;13.71;99.12;100492.81;4917299;28;20074;-76
2023/08/06 02:21:50;;;;;;;13.35;3.83;;;14.70;99.90;;;13.72;98.84;100494.50;4924358;28;20036;-76
2023/08/06 02:24:18;;;;;;;9.57;3.85;;;14.70;99.90;;;13.74;98.93;100492.63;4910554;29;20118;-76
2023/08/06 02:26:49;;;;;;;7.57;3.72;;;14.70;99.90;;;13.75;98.71;100483.72;4898682;28;20423;-76
2023/08/06 02:29:14;;;;;;;7.63;3.50;;;14.70;99.90;;;13.77;98.31;100482.78;4910347;28;20039;-76
2023/08/06 02:31:40;;;;;;;13.05;3.80;;;14.70;99.90;;;13.77;98.34;100486.28;4935049;28;20078;-76
2023/08/06 02:34:06;;;;;;;8.25;3.22;;;14.70;99.90;;;13.80;98.31;100479.94;4907385;28;20182;-76
2023/08/06 02:36:32;;;;;;;8.07;3.05;;;14.70;99.90;;;13.81;98.32;100471.06;4888194;28;20135;-76
2023/08/06 02:38:58;;;;;;;8.60;4.07;;;14.70;99.90;;;13.80;98.63;100472.88;4908001;28;20031;-77
2023/08/06 02:41:26;;;;;;;8.13;3.53;;;14.70;99.90;;;13.81;98.68;100465.78;4915760;28;20138;-77
2023/08/06 02:43:53;;;;;;;8.02;4.05;;;14.70;99.90;;;13.82;98.61;100464.81;4918332;28;20083;-76
2023/08/06 02:46:18;;;;;;;7.22;3.22;;;14.70;99.90;;;13.83;98.74;100469.16;4938189;28;20048;-76
2023/08/06 02:48:44;;;;;;;7.22;3.50;;;14.70;99.90;;;13.83;98.78;100456.78;4916110;28;20530;-76
2023/08/06 02:51:10;;;;;;;9.55;3.13;;;14.80;99.90;;;13.84;98.88;100453.16;4912282;28;20464;-76
2023/08/06 02:53:41;;;;;;;9.68;4.00;;;14.80;99.90;;;13.84;98.80;100439.94;4908072;28;20127;-76
2023/08/06 02:56:06;;;;;;;8.98;3.63;;;14.80;99.90;;;13.85;99.06;100432.88;4916702;28;20500;-76
2023/08/06 02:58:32;;;;;;;10.60;3.60;;;14.80;99.90;;;13.86;98.99;100437.19;4933264;28;20171;-76
2023/08/06 03:01:06;;;;;;;9.63;3.60;;;14.80;99.90;;;13.87;99.05;100434.47;4939318;28;20163;-76
2023/08/06 03:03:33;;;;;;;7.20;3.47;;;14.80;99.90;;;13.88;99.25;100430.84;4934499;28;20527;-76
2023/08/06 03:05:59;;;;;;;12.82;4.13;;;14.80;99.90;;;13.89;99.10;100423.78;4908637;28;20062;-76
2023/08/06 03:08:25;;;;;;;7.07;3.53;;;14.80;99.90;;;13.90;99.07;100425.47;4923502;28;20066;-75
2023/08/06 03:10:52;;;;;;;7.78;3.85;;;14.80;99.90;;;13.92;99.01;100412.97;4931098;28;20487;-76
2023/08/06 03:13:18;;;;;;;10.85;4.07;;;14.90;99.90;;;13.93;99.31;100412.88;4914196;28;20448;-76
2023/08/06 03:15:59;;;;;;;9.32;3.72;;;14.90;99.90;;;13.95;99.33;100413.63;4907858;28;20024;-76
2023/08/06 03:18:30;;;;;;;7.82;3.92;;;14.90;99.90;;;13.96;99.11;100401.25;4917170;28;22648;-76
2023/08/06 03:20:56;;;;;;;9.35;3.83;;;14.90;99.90;;;13.94;99.76;100393.41;4933594;28;20411;-76
2023/08/06 03:23:22;;;;;;;8.82;4.03;;;14.90;99.90;;;13.94;99.95;100397.84;4923126;28;20058;-76
2023/08/06 03:25:48;;;;;;;11.25;4.10;;;14.90;99.90;;;13.93;100.00;100388.19;4904343;28;20191;-76
2023/08/06 03:28:14;;;;;;;9.38;4.40;;;14.90;99.90;;;13.92;100.00;100386.50;4925935;28;20578;-76
2023/08/06 03:30:42;;;;;;;11.45;3.67;;;14.90;99.90;;;13.92;100.00;100373.28;4927818;28;20050;-76
2023/08/06 03:33:08;;;;;;;15.95;3.95;;;14.90;99.90;;;13.92;100.00;100374.13;4906482;28;20036;-76
2023/08/06 03:35:34;;;;;;;9.13;3.58;;;14.80;99.90;;;13.91;100.00;100374.25;4909444;28;20514;-76
2023/08/06 03:37:59;;;;;;;6.38;3.30;;;14.80;99.90;;;13.91;100.00;100376.91;4941807;28;20035;-76
2023/08/06 03:40:25;;;;;;;9.57;3.83;;;14.80;99.90;;;13.90;100.00;100375.19;4925846;28;20051;-76
2023/08/06 03:42:51;;;;;;;12.02;4.00;;;14.90;99.90;;;13.89;100.00;100373.50;4918193;28;20081;-77
2023/08/06 03:45:17;;;;;;;8.85;3.42;;;14.90;99.90;;;13.88;100.00;100372.63;4936260;28;20046;-76
2023/08/06 03:47:43;;;;;;;17.52;3.70;;;14.80;99.90;;;13.89;100.00;100362.91;4924165;28;20447;-76
2023/08/06 03:50:09;;;;;;;10.18;4.25;;;14.80;99.90;;;13.90;100.00;100359.31;4911065;28;20074;-76
2023/08/06 03:52:37;;;;;;;13.98;4.18;;;14.90;99.90;;;13.94;100.00;100355.50;4929892;28;21161;-76
2023/08/06 03:55:03;;;;;;;6.75;3.28;;;14.90;99.90;;;13.96;100.00;100356.25;4914245;28;20072;-76
2023/08/06 03:57:29;;;;;;;9.30;3.40;;;14.90;99.90;;;14.00;100.00;100357.75;4923616;28;20438;-76
2023/08/06 03:59:54;;;;;;;9.13;3.35;;;14.90;99.90;;;14.02;100.00;100358.50;4908935;28;20134;-75
2023/08/06 04:02:20;;;;;;;7.30;3.28;;;14.90;99.90;;;14.06;100.00;100359.13;4932106;28;20127;-76
2023/08/06 04:04:46;;;;;;;10.80;3.90;;;14.90;99.90;;;14.07;100.00;100359.03;4928869;28;20115;-76
2023/08/06 04:07:19;;;;;;;8.68;3.97;;;15.00;99.90;;;14.07;100.00;100356.38;4930267;28;20062;-77
2023/08/06 04:10:03;;;;;;;15.65;4.75;;;15.00;99.90;;;14.04;100.00;100348.66;4907913;28;20772;-76
2023/08/06 04:12:30;;;;;;;10.57;4.80;;;15.00;99.90;;;14.01;100.00;100346.19;4915632;28;20197;-76
2023/08/06 04:14:58;;;;;;;10.38;4.00;;;15.00;99.90;;;14.01;100.00;100343.53;4922338;28;20115;-76
2023/08/06 04:17:24;;;;;;;7.53;3.80;;;14.90;99.90;;;14.03;100.00;100344.28;4931650;28;20171;-76
2023/08/06 04:19:53;;;;;;;17.20;4.28;;;15.00;99.90;;;14.06;100.00;100336.16;4904567;28;20110;-76
2023/08/06 04:22:19;;;;;;;8.13;3.80;;;15.00;99.90;;;14.09;100.00;100333.28;4916135;28;20043;-76
2023/08/06 04:24:45;;;;;;;7.93;3.78;;;15.00;99.90;;;14.12;100.00;100332.22;4933254;28;20106;-76
2023/08/06 04:27:12;;;;;;;7.60;3.63;;;15.10;99.90;;;14.18;100.00;100336.28;4909003;28;20459;-76
2023/08/06 04:29:41;;;;;;;7.75;3.85;;;15.10;99.90;;;14.20;100.00;100327.28;4918942;28;20539;-76
2023/08/06 04:32:09;;;;;;;7.22;4.25;;;15.10;99.90;;;14.24;100.00;100330.56;4901022;28;20039;-76
2023/08/06 04:34:36;;;;;;;10.82;4.30;;;15.10;99.90;;;14.26;100.00;100328.66;4896840;29;20122;-76
2023/08/06 04:37:03;;;;;;;10.60;3.97;;;15.20;99.90;;;14.30;100.00;100327.50;4904028;28;20178;-77
2023/08/06 04:39:34;;;;;;;10.18;3.92;;;15.20;99.90;;;14.34;100.00;100327.19;4948080;28;20035;-77
2023/08/06 04:41:59;;;;;;;14.35;4.20;;;15.20;99.90;;;14.39;100.00;100323.38;4916635;28;20072;-76
2023/08/06 04:44:25;;;;;;;8.30;4.28;;;15.30;99.90;;;14.44;100.00;100322.09;4931969;28;20463;-77
2023/08/06 04:46:51;;;;;;;6.97;3.67;;;15.30;99.90;;;14.48;100.00;100312.97;4899659;28;20059;-76
2023/08/06 04:49:20;;;;;;;12.93;3.75;;;15.30;99.90;;;14.54;100.00;100311.72;4909171;28;20137;-76
2023/08/06 04:51:45;;;;;;;11.75;4.40;;;15.40;99.90;;;14.59;100.00;100314.06;4909717;28;20377;-77
2023/08/06 04:54:14;;;;;;;11.27;4.00;;;15.50;99.90;;;14.65;100.00;100311.84;4903993;28;20063;-76
2023/08/06 04:56:40;;;;;;;14.10;4.40;;;15.50;99.90;;;14.71;100.00;100313.22;4933400;28;20027;-77
2023/08/06 04:59:06;;;;;;;7.85;3.63;;;15.60;99.90;;;14.77;100.00;100312.75;4921939;28;20050;-76
2023/08/06 05:01:32;;;;;;;8.40;3.70;;;15.60;99.90;;;14.81;100.00;100306.28;4924975;28;20043;-76
2023/08/06 05:03:57;;;;;;;8.32;3.45;;;15.70;99.90;;;14.86;100.00;100298.00;4942480;28;20566;-76
2023/08/06 05:06:23;;;;;;;12.35;3.80;;;15.70;99.90;;;14.91;100.00;100301.19;4925286;28;20041;-76
2023/08/06 05:08:52;;;;;;;8.50;3.53;;;15.80;99.90;;;14.97;100.00;100293.66;4926531;28;20468;-76
2023/08/06 05:11:18;;;;;;;11.70;3.72;;;15.80;99.90;;;15.03;100.00;100297.66;4913531;28;20027;-76
2023/08/06 05:13:43;;;;;;;7.28;3.15;;;15.90;99.90;;;15.08;100.00;100295.53;4927254;28;20106;-76
2023/08/06 05:16:09;;;;;;;7.47;3.35;;;15.90;99.90;;;15.13;100.00;100287.22;4905166;28;20059;-76
2023/08/06 05:18:37;;;;;;;8.63;3.50;;;16.00;99.90;;;15.16;100.00;100293.16;4925381;28;20118;-76
2023/08/06 05:21:03;;;;;;;8.23;3.65;;;16.00;99.90;;;15.20;100.00;100280.50;4923747;28;21723;-76
2023/08/06 05:23:29;;;;;;;9.18;3.35;;;16.10;99.90;;;15.23;100.00;100287.44;4879507;29;20039;-76
2023/08/06 05:25:57;;;;;;;12.02;3.55;;;16.10;99.90;;;15.25;100.00;100275.75;4916964;28;20049;-76
2023/08/06 05:28:22;;;;;;;9.65;3.53;;;16.10;99.90;;;15.30;100.00;100273.59;4937541;28;20059;-77
2023/08/06 05:30:48;;;;;;;10.57;4.00;;;16.20;99.90;;;15.35;100.00;100274.09;4925045;28;20043;-76
2023/08/06 05:33:14;;;;;;;14.30;3.90;;;16.20;99.90;;;15.39;100.00;100270.25;4904533;28;20111;-75
2023/08/06 05:35:42;;;;;;;11.15;4.38;;;16.20;99.90;;;15.45;100.00;100271.59;4934321;28;20043;-76
2023/08/06 05:38:07;;;;;;;7.57;3.95;;;16.30;99.90;;;15.48;100.00;100275.84;4911926;28;20210;-76
2023/08/06 05:40:36;;;;;;;11.52;3.90;;;16.30;99.90;;;15.51;100.00;100271.16;4918804;28;20741;-76
2023/08/06 05:43:02;;;;;;;11.32;3.72;;;16.30;99.90;;;15.54;100.00;100262.97;4919691;28;20122;-76
2023/08/06 05:45:28;;;;;;;12.07;4.05;;;16.40;99.90;;;15.58;100.00;100261.78;4903805;28;20051;-76
2023/08/06 05:47:57;;;;;;;8.77;3.60;;;16.40;99.90;;;15.63;100.00;100258.75;4912094;28;20131;-76
2023/08/06 05:50:23;;;;;;;10.40;4.03;;;16.50;99.90;;;15.69;100.00;100257.47;4923561;28;20440;-76
2023/08/06 05:52:49;;;;;;;14.13;4.10;;;16.50;99.90;;;15.73;100.00;100248.34;4908524;28;20042;-76
2023/08/06 05:55:17;;;;;;;6.78;3.33;;;16.60;99.90;;;15.75;100.00;100251.72;4905457;28;20613;-77
2023/08/06 05:57:43;;;;;;;11.32;3.60;;;16.50;99.90;;;15.64;100.00;100243.72;4932328;28;20050;-77
2023/08/06 06:00:10;;;;;;;5.38;3.33;;;16.60;99.90;;;15.72;100.00;100249.28;4928050;28;20035;-76
2023/08/06 06:02:35;;;;;;;13.93;3.35;;;16.60;99.90;;;15.67;100.00;100240.81;4934556;28;20032;-76
2023/08/06 06:05:01;;;;;;;10.02;3.85;;;16.60;99.90;;;15.72;100.00;100236.03;4907502;28;20208;-76
2023/08/06 06:07:27;;;;;;;8.38;3.50;;;16.60;99.90;;;15.76;100.00;100234.81;4921403;28;20118;-75
2023/08/06 06:09:55;;;;;;;8.05;3.30;;;16.60;99.90;;;15.71;100.00;100232.53;4891634;28;20051;-76
2023/08/06 06:12:22;;;;;;;9.07;3.00;;;16.70;99.90;;;15.76;100.00;100234.81;4933329;28;20074;-76
2023/08/06 06:14:48;;;;;;;7.85;2.97;;;16.70;99.90;;;15.77;100.00;100232.06;4935954;28;20040;-77
2023/08/06 06:17:13;;;;;;;13.38;3.78;;;16.70;99.90;;;15.89;100.00;100226.78;4927303;28;20058;-76
2023/08/06 06:19:39;;;;;;;10.40;3.63;;;16.80;99.90;;;15.99;100.00;100233.06;4912516;28;20113;-76
2023/08/06 06:22:06;;;;;;;6.82;2.70;;;16.80;99.90;;;16.05;100.00;100232.59;4918573;28;20100;-76
2023/08/06 06:24:31;;;;;;;10.40;3.00;;;16.90;99.90;;;16.11;100.00;100234.78;4918430;28;20118;-76
2023/08/06 06:27:05;;;;;;;11.40;3.53;;;16.90;99.90;;;16.18;100.00;100224.53;4906507;28;20118;-76
2023/08/06 06:29:30;;;;;;;6.63;3.28;;;17.00;99.90;;;16.14;100.00;100220.44;4909311;28;20054;-76
2023/08/06 06:31:56;;;;;;;9.93;3.22;;;17.00;99.90;;;16.19;100.00;100219.09;4884672;28;20047;-77
2023/08/06 06:34:22;;;;;;;8.70;3.70;;;17.00;99.90;;;16.16;100.00;100213.19;4892562;29;20118;-76
2023/08/06 06:36:50;;;;;;;10.25;3.40;;;17.00;99.90;;;16.15;100.00;100222.94;4926076;28;20054;-76
2023/08/06 06:39:17;;;;;;;12.70;4.50;;;17.10;99.90;;;16.24;100.00;100221.41;4921036;28;20705;-74
2023/08/06 06:41:44;;;;;;;10.18;3.97;;;17.10;99.90;;;16.32;100.00;100228.75;4910294;28;20032;-74
2023/08/06 06:44:10;;;;;;;10.73;3.80;;;17.10;99.90;;;16.35;100.00;100223.22;4922436;28;20039;-75
2023/08/06 06:46:36;;;;;;;10.40;4.32;;;17.20;99.90;;;16.40;100.00;100227.19;4932111;28;20032;-74
2023/08/06 06:49:02;;;;;;;12.70;4.03;;;17.20;99.90;;;16.43;100.00;100212.81;4924722;28;20047;-74
2023/08/06 06:51:35;;;;;;;9.43;4.03;;;17.30;99.90;;;16.48;100.00;100218.63;4921538;28;20142;-74
2023/08/06 06:54:01;;;;;;;10.80;4.25;;;17.30;99.90;;;16.49;100.00;100217.63;4932931;28;20031;-75
2023/08/06 06:56:26;;;;;;;13.05;4.65;;;17.30;99.90;;;16.53;100.00;100216.44;4906506;28;20032;-75
2023/08/06 06:58:52;;;;;;;12.85;4.45;;;17.30;99.90;;;16.48;100.00;100217.75;4917373;28;20027;-75
2023/08/06 07:01:18;;;;;;;10.63;4.78;;;17.30;99.90;;;16.49;100.00;100214.97;4925932;28;20043;-75
2023/08/06 07:03:44;;;;;;;13.02;5.18;;;17.30;99.90;;;16.54;100.00;100214.59;4932898;28;20036;-75
2023/08/06 07:06:12;;;;;;;14.32;5.03;;;17.40;99.90;;;16.56;100.00;100215.34;4934152;28;20546;-75
2023/08/06 07:08:37;;;;;;;12.80;5.20;;;17.40;99.90;;;16.53;100.00;100215.59;4932516;28;20448;-75
2023/08/06 07:11:06;;;;;;;12.63;5.18;;;17.40;99.90;;;16.49;100.00;100214.97;4907400;28;20097;-76
2023/08/06 07:13:33;;;;;;;13.45;5.30;;;17.40;99.90;;;16.53;100.00;100213.78;4913825;28;20573;-75
2023/08/06 07:15:59;;;;;;;15.80;5.35;;;17.40;99.90;;;16.49;100.00;100214.97;4910204;28;20031;-79
2023/08/06 07:18:27;;;;;;;15.10;5.32;;;17.40;99.90;;;16.49;100.00;100217.63;4916981;28;20533;-77
2023/08/06 07:20:54;;;;;;;19.20;5.85;;;17.40;99.90;;;16.53;100.00;100203.13;4890104;28;20095;-78
2023/08/06 07:23:25;;;;;;;17.98;6.40;;;17.40;99.90;;;16.47;100.00;100208.94;4918905;28;20058;-77
2023/08/06 07:25:51;;;;;;;14.75;6.68;;;17.50;99.90;;;16.60;100.00;100207.00;4913523;28;20047;-76
2023/08/06 07:28:25;;;;;;;17.30;6.20;;;17.50;99.90;;;16.60;100.00;100207.00;4888835;28;20067;-77
2023/08/06 07:30:51;;;;;;;19.25;6.25;;;17.50;99.90;;;16.53;100.00;100200.47;4936012;28;20043;-77
2023/08/06 07:33:16;;;;;;;20.45;7.47;;;17.50;99.90;;;16.69;100.00;100205.41;4911380;28;20476;-77
2023/08/06 07:35:43;;;;;;;17.98;6.05;;;17.60;99.90;;;16.69;100.00;100199.25;4920097;28;20186;-76
2023/08/06 07:38:09;;;;;;;13.98;5.43;;;17.60;99.90;;;16.63;100.00;100189.09;4913358;28;20039;-77
2023/08/06 07:40:38;;;;;;;17.25;5.38;;;17.50;99.90;;;16.59;100.00;100191.19;4908894;28;20407;-77
2023/08/06 07:43:05;;;;;;;18.90;5.43;;;17.50;99.90;;;16.51;100.00;100197.09;4932831;28;20043;-77
2023/08/06 07:45:39;;;;;;;14.73;5.20;;;17.50;99.90;;;16.45;100.00;100194.09;4905185;28;20122;-77
2023/08/06 07:48:05;;;;;;;17.50;5.35;;;17.50;99.90;;;16.56;100.00;100194.06;4931219;28;20099;-77
2023/08/06 07:50:32;;;;;;;13.80;5.30;;;17.50;99.90;;;16.53;100.00;100197.81;4902856;28;20703;-77
2023/08/06 07:52:57;;;;;;;11.82;5.50;;;17.50;99.90;;;16.50;100.00;100199.88;4891180;28;20040;-77
2023/08/06 07:55:23;;;;;;;12.40;4.88;;;17.50;99.90;;;16.61;100.00;100197.22;4904934;28;20118;-77
2023/08/06 07:57:49;;;;;;;12.85;4.80;;;17.50;99.90;;;16.48;100.00;100196.50;4933335;28;20127;-77
2023/08/06 08:00:15;;;;;;;16.95;4.90;;;17.50;99.90;;;16.58;100.00;100211.59;4947706;28;20035;-77
2023/08/06 08:02:43;;;;;;;13.95;5.55;;;17.60;99.90;;;16.67;100.00;100206.50;4912106;28;20046;-77
2023/08/06 08:05:11;;;;;;;13.15;4.60;;;17.60;99.90;;;16.71;100.00;100214.09;4907071;28;20031;-78
2023/08/06 08:07:37;;;;;;;16.02;5.32;;;17.60;99.90;;;16.68;100.00;100201.06;4941469;28;20043;-77
2023/08/06 08:10:05;;;;;;;16.15;5.93;;;17.60;99.90;;;16.70;100.00;100206.28;4912631;28;20128;-77
2023/08/06 08:12:30;;;;;;;14.13;5.40;;;17.60;99.90;;;16.73;100.00;100200.69;4897450;28;20110;-77
2023/08/06 08:15:01;;;;;;;16.80;5.53;;;17.60;99.90;;;16.67;100.00;100195.88;4895558;28;20110;-77
2023/08/06 08:17:27;;;;;;;18.90;5.78;;;17.60;99.90;;;16.55;100.00;100198.56;4886886;28;20133;-77
2023/08/06 08:19:52;;;;;;;13.60;5.63;;;17.60;99.90;;;16.52;100.00;100196.16;4914605;28;20103;-78
2023/08/06 08:22:18;;;;;;;13.68;5.63;;;17.60;99.90;;;16.71;100.00;100192.00;4870298;28;20052;-77
2023/08/06 08:24:44;;;;;;;21.88;5.90;;;17.70;99.90;;;16.85;100.00;100191.78;4905885;28;20443;-77
2023/08/06 08:27:10;;;;;;;12.02;5.25;;;17.70;99.90;;;16.93;100.00;100186.69;4903664;28;20135;-77
2023/08/06 08:29:35;;;;;;;14.23;5.13;;;17.70;99.90;;;16.89;100.00;100182.56;4907129;28;21269;-77
2023/08/06 08:32:07;;;;;;;12.55;4.75;;;17.80;99.90;;;16.86;100.00;100193.44;4898021;28;20705;-77
2023/08/06 08:34:32;;;;;;;13.63;5.18;;;17.80;99.90;;;16.95;100.00;100183.88;4909616;28;20485;-77
2023/08/06 08:36:58;;;;;;;12.38;4.47;;;17.80;99.90;;;16.95;100.00;100181.22;4892305;28;20045;-77
2023/08/06 08:39:24;;;;;;;10.57;3.88;;;17.80;99.90;;;16.89;100.00;100177.25;4884322;28;20189;-77
2023/08/06 08:41:50;;;;;;;8.27;3.63;;;17.80;99.90;;;16.91;100.00;100177.97;4932028;28;20134;-77
2023/08/06 08:44:24;;;;;;;12.27;4.28;;;17.80;99.90;;;16.81;100.00;100171.72;4916441;28;20735;-77
2023/08/06 08:46:50;;;;;;;8.00;3.20;;;17.80;99.90;;;16.83;100.00;100175.09;4903908;28;20539;-77
2023/08/06 08:49:17;;;;;;;7.63;3.65;;;17.80;99.90;;;16.85;100.00;100172.31;4893415;28;20037;-77
2023/08/06 08:51:47;;;;;;;7.97;3.58;;;17.90;99.90;;;16.99;100.00;100170.19;4891733;28;20050;-77
2023/08/06 08:54:15;;;;;;;7.72;3.35;;;17.90;99.90;;;17.07;100.00;100166.06;4924078;28;20094;-77
2023/08/06 08:56:41;;;;;;;11.73;4.18;;;18.00;99.90;;;17.18;100.00;100161.53;4931922;28;21334;-77
2023/08/06 08:59:06;;;;;;;9.00;3.20;;;18.00;99.90;;;17.23;100.00;100161.16;4930663;28;22265;-77
2023/08/06 09:01:34;;;;;;;7.30;3.70;;;18.10;99.90;;;17.29;100.00;100155.31;4918544;28;20026;-77
2023/08/06 09:04:12;;;;;;;7.95;3.17;;;18.10;99.90;;;17.25;100.00;100155.72;4931209;28;20046;-77
2023/08/06 09:06:50;;;;;;;6.93;3.30;;;18.10;99.90;;;17.34;100.00;100152.25;4911899;28;20406;-77
2023/08/06 09:09:26;;;;;;;11.32;3.25;;;18.10;99.90;;;17.22;100.00;100141.69;4919362;28;20101;-78
2023/08/06 09:11:59;;;;;;;8.30;3.40;;;18.10;99.90;;;17.24;100.00;100144.22;4913673;28;20048;-76
2023/08/06 09:14:28;;;;;;;9.30;3.60;;;18.20;99.90;;;17.33;100.00;100146.09;4924182;28;20039;-77
2023/08/06 09:16:55;;;;;;;8.73;3.47;;;18.20;99.90;;;17.45;100.00;100144.25;4907449;28;20038;-77
2023/08/06 09:19:23;;;;;;;5.95;2.60;;;18.20;99.90;;;17.28;100.00;100136.81;4895485;28;20031;-77
2023/08/06 09:21:51;;;;;;;9.30;3.50;;;18.20;99.90;;;17.35;100.00;100138.84;4908418;28;20138;-77
2023/08/06 09:24:20;;;;;;;9.95;3.83;;;18.20;99.90;;;17.41;100.00;100143.66;4917890;28;20102;-77
2023/08/06 09:26:49;;;;;;;10.73;3.47;;;18.20;99.90;;;17.27;100.00;100137.81;4890226;28;20036;-77
2023/08/06 09:29:20;;;;;;;10.52;3.88;;;18.20;99.90;;;17.33;100.00;100138.13;4929074;28;20047;-77
2023/08/06 09:31:53;;;;;;;13.68;4.13;;;18.20;99.90;;;17.36;100.00;100132.53;4904494;28;20054;-77
2023/08/06 09:34:23;;;;;;;10.02;3.33;;;18.10;99.90;;;17.22;100.00;100136.38;4909755;28;20051;-76
2023/08/06 09:36:58;;;;;;;14.23;4.45;;;18.20;99.90;;;17.28;100.00;100131.50;4911633;28;20035;-77
2023/08/06 09:39:31;;;;;;;8.93;3.20;;;18.20;99.90;;;17.30;100.00;100133.06;4910993;28;20040;-77
2023/08/06 09:42:01;;;;;;;8.75;3.88;;;18.10;99.90;;;17.28;100.00;100128.84;4892207;28;20094;-77
2023/08/06 09:44:35;;;;;;;9.15;3.28;;;18.10;99.90;;;17.25;100.00;100123.78;4921291;29;20035;-76
2023/08/06 09:47:06;;;;;;;8.73;3.40;;;18.10;99.90;;;17.15;100.00;100129.88;4913919;28;20039;-77
2023/08/06 09:49:43;;;;;;;12.68;3.38;;;17.90;99.90;;;16.87;100.00;100120.69;4903216;28;20055;-77
2023/08/06 09:52:13;;;;;;;7.75;3.10;;;17.90;99.90;;;16.88;100.00;100111.72;4902303;28;20031;-77
2023/08/06 09:54:40;;;;;;;12.20;4.78;;;17.80;99.90;;;16.89;100.00;100118.75;4905605;28;20031;-77
2023/08/06 09:57:06;;;;;;;7.90;3.42;;;17.70;99.90;;;16.69;100.00;100120.34;4909119;28;20032;-77
2023/08/06 09:59:33;;;;;;;12.35;3.80;;;17.70;99.90;;;16.69;100.00;100111.53;4937803;28;20056;-77
2023/08/06 10:02:00;;;;;;;13.85;3.72;;;17.60;99.90;;;16.65;100.00;100104.78;4927015;29;20031;-76
2023/08/06 10:04:29;;;;;;;9.10;3.38;;;17.70;99.90;;;16.64;100.00;100105.75;4936230;28;20054;-77
2023/08/06 10:06:57;;;;;;;11.73;3.78;;;17.50;99.90;;;16.42;100.00;100101.34;4906385;28;20443;-77